createdAt,value
2017-10-31T00:00:58.648Z,82.20
2017-10-31T00:01:58.641Z,81.44
2017-10-31T00:02:58.641Z,80.77
2017-10-31T00:03:58.631Z,80.87
2017-10-31T00:04:58.639Z,80.49
2017-10-31T00:05:58.621Z,79.55
2017-10-31T00:06:58.619Z,79.64
2017-10-31T00:07:58.613Z,80.30
2017-10-31T00:08:58.617Z,80.30
2017-10-31T00:09:58.605Z,80.49
2017-10-31T00:10:58.605Z,80.68
2017-10-31T00:11:58.588Z,80.77
2017-10-31T00:12:58.583Z,81.25
2017-10-31T00:13:58.579Z,81.44
2017-10-31T00:14:58.573Z,81.82
2017-10-31T00:15:58.623Z,82.01
2017-10-31T00:16:58.572Z,82.48
2017-10-31T00:17:58.559Z,82.29
2017-10-31T00:18:58.557Z,81.92
2017-10-31T00:19:58.546Z,82.01
2017-10-31T00:20:58.544Z,82.10
2017-10-31T00:21:58.537Z,81.63
2017-10-31T00:22:58.534Z,81.34
2017-10-31T00:23:58.526Z,81.15
2017-10-31T00:24:58.521Z,80.58
2017-10-31T00:25:58.515Z,81.15
2017-10-31T00:26:58.510Z,81.53
2017-10-31T00:27:58.510Z,81.53
2017-10-31T00:28:58.499Z,81.15
2017-10-31T00:29:58.504Z,81.34
2017-10-31T00:30:58.489Z,81.34
2017-10-31T00:31:58.483Z,81.15
2017-10-31T00:32:58.477Z,81.34
2017-10-31T00:33:58.472Z,82.29
2017-10-31T00:34:58.517Z,81.82
2017-10-31T00:35:58.461Z,81.30
2017-10-31T00:36:58.456Z,81.21
2017-10-31T00:37:58.452Z,81.30
2017-10-31T00:38:58.448Z,81.96
2017-10-31T00:39:58.440Z,81.87
2017-10-31T00:40:58.435Z,81.77
2017-10-31T00:41:58.429Z,82.25
2017-10-31T00:42:58.425Z,82.82
2017-10-31T00:43:58.423Z,82.34
2017-10-31T00:44:58.464Z,82.34
2017-10-31T00:45:58.407Z,81.96
2017-10-31T00:46:58.403Z,81.96
2017-10-31T00:47:58.396Z,82.34
2017-10-31T00:48:58.391Z,82.72
2017-10-31T00:49:58.385Z,83.01
2017-10-31T00:50:58.381Z,82.82
2017-10-31T00:51:58.381Z,82.72
2017-10-31T00:52:58.369Z,83.01
2017-10-31T00:53:58.362Z,82.72
2017-10-31T00:54:58.408Z,83.10
2017-10-31T00:55:58.352Z,83.48
2017-10-31T00:56:58.348Z,82.72
2017-10-31T00:57:58.341Z,82.72
2017-10-31T00:58:58.336Z,83.48
2017-10-31T00:59:58.329Z,82.82
2017-10-31T01:00:58.325Z,83.86
2017-10-31T01:01:58.320Z,83.58
2017-10-31T01:02:58.314Z,84.23
2017-10-31T01:03:58.309Z,84.14
2017-10-31T01:04:58.303Z,84.05
2017-10-31T01:05:58.295Z,84.81
2017-10-31T01:06:58.292Z,84.90
2017-10-31T01:07:58.284Z,85.19
2017-10-31T01:08:58.280Z,85.00
2017-10-31T01:09:58.274Z,84.95
2017-10-31T01:10:58.267Z,84.71
2017-10-31T01:11:58.261Z,85.42
2017-10-31T01:12:58.257Z,85.47
2017-10-31T01:13:58.251Z,85.57
2017-10-31T01:14:58.244Z,85.19
2017-10-31T01:15:58.246Z,84.90
2017-10-31T01:16:58.231Z,84.23
2017-10-31T01:17:58.226Z,84.42
2017-10-31T01:18:58.222Z,84.23
2017-10-31T01:19:58.214Z,83.10
2017-10-31T01:20:58.209Z,82.82
2017-10-31T01:21:58.204Z,83.29
2017-10-31T01:22:58.198Z,82.63
2017-10-31T01:23:58.192Z,82.63
2017-10-31T01:24:58.186Z,83.01
2017-10-31T01:25:58.181Z,82.25
2017-10-31T01:26:58.180Z,82.15
2017-10-31T01:27:58.169Z,82.25
2017-10-31T01:28:58.163Z,82.82
2017-10-31T01:29:58.158Z,83.10
2017-10-31T01:30:58.153Z,82.44
2017-10-31T01:31:58.146Z,82.34
2017-10-31T01:32:58.142Z,82.91
2017-10-31T01:33:58.134Z,83.01
2017-10-31T01:34:58.130Z,82.63
2017-10-31T01:35:58.137Z,82.82
2017-10-31T01:36:58.117Z,82.72
2017-10-31T01:37:58.112Z,82.34
2017-10-31T01:38:58.107Z,82.53
2017-10-31T01:39:58.099Z,82.53
2017-10-31T01:40:58.097Z,82.44
2017-10-31T01:41:58.090Z,82.63
2017-10-31T01:42:58.084Z,82.72
2017-10-31T01:43:58.084Z,82.63
2017-10-31T01:44:58.072Z,82.82
2017-10-31T01:45:58.067Z,82.72
2017-10-31T01:46:58.065Z,82.34
2017-10-31T01:47:58.055Z,82.82
2017-10-31T01:48:58.050Z,82.82
2017-10-31T01:50:58.042Z,82.91
2017-10-31T01:51:58.032Z,82.82
2017-10-31T01:52:58.026Z,82.91
2017-10-31T01:53:58.021Z,83.76
2017-10-31T01:54:58.016Z,83.20
2017-10-31T01:55:58.009Z,83.58
2017-10-31T01:56:58.004Z,83.86
2017-10-31T01:57:57.998Z,84.33
2017-10-31T01:58:57.992Z,84.42
2017-10-31T01:59:57.985Z,83.95
2017-10-31T02:00:57.980Z,84.14
2017-10-31T02:01:57.979Z,83.95
2017-10-31T02:02:57.970Z,84.10
2017-10-31T02:03:57.963Z,84.01
2017-10-31T02:04:57.957Z,84.95
2017-10-31T02:05:57.953Z,85.52
2017-10-31T02:06:57.946Z,85.42
2017-10-31T02:07:57.940Z,85.52
2017-10-31T02:08:57.934Z,85.71
2017-10-31T02:09:57.928Z,85.90
2017-10-31T02:10:57.922Z,85.42
2017-10-31T02:11:57.916Z,85.90
2017-10-31T02:12:57.911Z,85.42
2017-10-31T02:13:57.903Z,85.71
2017-10-31T02:14:57.898Z,85.42
2017-10-31T02:15:57.891Z,85.61
2017-10-31T02:16:57.885Z,85.42
2017-10-31T02:17:57.881Z,85.33
2017-10-31T02:18:57.873Z,85.80
2017-10-31T02:19:57.867Z,85.71
2017-10-31T02:20:57.861Z,85.61
2017-10-31T02:21:57.856Z,85.42
2017-10-31T02:22:57.849Z,85.52
2017-10-31T02:23:57.842Z,85.14
2017-10-31T02:24:57.837Z,85.14
2017-10-31T02:25:57.830Z,84.77
2017-10-31T02:26:57.825Z,85.71
2017-10-31T02:27:57.819Z,85.42
2017-10-31T02:28:57.812Z,85.61
2017-10-31T02:29:57.807Z,85.52
2017-10-31T02:30:57.807Z,85.42
2017-10-31T02:31:57.793Z,85.42
2017-10-31T02:32:57.789Z,85.99
2017-10-31T02:33:57.782Z,85.99
2017-10-31T02:34:57.776Z,85.90
2017-10-31T02:35:57.769Z,86.09
2017-10-31T02:36:57.763Z,86.37
2017-10-31T02:37:57.764Z,86.85
2017-10-31T02:38:57.751Z,86.85
2017-10-31T02:39:57.744Z,86.18
2017-10-31T02:40:57.738Z,86.28
2017-10-31T02:41:57.734Z,85.90
2017-10-31T02:42:57.727Z,86.18
2017-10-31T02:43:57.721Z,85.71
2017-10-31T02:44:57.715Z,85.52
2017-10-31T02:45:57.708Z,85.80
2017-10-31T02:46:57.702Z,85.61
2017-10-31T02:47:57.696Z,84.77
2017-10-31T02:48:57.690Z,84.95
2017-10-31T02:49:57.683Z,84.77
2017-10-31T02:50:57.678Z,84.86
2017-10-31T02:51:57.671Z,84.77
2017-10-31T02:52:57.664Z,84.67
2017-10-31T02:53:57.661Z,85.14
2017-10-31T02:54:57.652Z,84.58
2017-10-31T02:55:57.647Z,84.58
2017-10-31T02:56:57.640Z,84.58
2017-10-31T02:57:57.642Z,84.29
2017-10-31T02:58:57.631Z,84.20
2017-10-31T02:59:57.624Z,84.39
2017-10-31T03:00:57.616Z,84.29
2017-10-31T03:01:57.613Z,84.39
2017-10-31T03:02:57.614Z,84.39
2017-10-31T03:03:57.597Z,84.58
2017-10-31T03:04:57.591Z,84.86
2017-10-31T03:05:57.635Z,85.14
2017-10-31T03:06:57.580Z,84.86
2017-10-31T03:07:57.575Z,85.05
2017-10-31T03:08:57.569Z,85.52
2017-10-31T03:09:57.561Z,85.61
2017-10-31T03:10:57.555Z,85.90
2017-10-31T03:11:57.550Z,85.24
2017-10-31T03:12:57.544Z,85.61
2017-10-31T03:13:57.538Z,85.42
2017-10-31T03:14:57.531Z,85.61
2017-10-31T03:15:57.525Z,85.80
2017-10-31T03:16:57.520Z,85.33
2017-10-31T03:17:57.513Z,85.42
2017-10-31T03:18:57.511Z,85.33
2017-10-31T03:19:57.500Z,85.05
2017-10-31T03:20:57.495Z,85.05
2017-10-31T03:21:57.487Z,84.95
2017-10-31T03:22:57.482Z,85.80
2017-10-31T03:23:57.475Z,86.28
2017-10-31T03:24:57.470Z,85.71
2017-10-31T03:25:57.463Z,85.99
2017-10-31T03:26:57.508Z,85.71
2017-10-31T03:27:57.449Z,85.71
2017-10-31T03:28:57.444Z,85.33
2017-10-31T03:29:57.438Z,85.42
2017-10-31T03:30:57.433Z,85.42
2017-10-31T03:31:57.426Z,85.05
2017-10-31T03:32:57.420Z,84.86
2017-10-31T03:33:57.413Z,84.95
2017-10-31T03:34:57.409Z,85.42
2017-10-31T03:35:57.407Z,84.86
2017-10-31T03:36:57.395Z,84.86
2017-10-31T03:37:57.389Z,85.24
2017-10-31T03:38:57.383Z,84.95
2017-10-31T03:39:57.376Z,84.77
2017-10-31T03:40:57.370Z,85.05
2017-10-31T03:41:57.378Z,84.77
2017-10-31T03:42:57.359Z,84.48
2017-10-31T03:43:57.351Z,84.58
2017-10-31T03:44:57.346Z,84.58
2017-10-31T03:45:57.339Z,84.58
2017-10-31T03:46:57.341Z,84.10
2017-10-31T03:47:57.326Z,83.91
2017-10-31T03:48:57.320Z,84.29
2017-10-31T03:49:57.315Z,84.48
2017-10-31T03:50:57.309Z,84.67
2017-10-31T03:51:57.303Z,84.48
2017-10-31T03:52:57.316Z,84.10
2017-10-31T03:53:57.289Z,83.82
2017-10-31T03:54:57.284Z,84.10
2017-10-31T03:55:57.278Z,84.01
2017-10-31T03:56:57.271Z,84.29
2017-10-31T03:57:57.265Z,84.10
2017-10-31T03:58:57.260Z,84.29
2017-10-31T03:59:57.273Z,83.72
2017-10-31T04:00:57.247Z,84.29
2017-10-31T04:01:57.241Z,83.91
2017-10-31T04:02:57.235Z,84.10
2017-10-31T04:03:57.228Z,83.53
2017-10-31T04:04:57.222Z,83.91
2017-10-31T04:05:57.217Z,84.20
2017-10-31T04:06:57.511Z,84.77
2017-10-31T04:07:57.205Z,84.58
2017-10-31T04:08:57.197Z,84.58
2017-10-31T04:09:57.192Z,84.67
2017-10-31T04:10:57.187Z,85.24
2017-10-31T04:11:57.479Z,85.52
2017-10-31T04:12:57.174Z,85.33
2017-10-31T04:13:57.168Z,85.52
2017-10-31T04:14:57.162Z,85.42
2017-10-31T04:15:57.155Z,85.52
2017-10-31T04:16:57.148Z,85.61
2017-10-31T04:17:57.142Z,85.61
2017-10-31T04:18:57.137Z,86.18
2017-10-31T04:19:57.130Z,86.56
2017-10-31T04:20:57.123Z,87.32
2017-10-31T04:21:57.117Z,87.41
2017-10-31T04:22:57.115Z,87.13
2017-10-31T04:23:57.106Z,87.18
2017-10-31T04:24:57.100Z,86.99
2017-10-31T04:25:57.092Z,87.55
2017-10-31T04:26:57.086Z,86.94
2017-10-31T04:27:57.079Z,87.04
2017-10-31T04:28:57.073Z,86.56
2017-10-31T04:29:57.066Z,86.28
2017-10-31T04:30:57.062Z,86.28
2017-10-31T04:31:57.053Z,86.47
2017-10-31T04:32:57.050Z,86.37
2017-10-31T04:33:57.040Z,86.09
2017-10-31T04:34:57.036Z,86.09
2017-10-31T04:35:57.028Z,86.28
2017-10-31T04:36:57.022Z,86.28
2017-10-31T04:37:57.014Z,86.56
2017-10-31T04:38:57.011Z,86.75
2017-10-31T04:39:57.002Z,86.85
2017-10-31T04:40:56.996Z,86.56
2017-10-31T04:41:56.990Z,85.80
2017-10-31T04:42:56.984Z,85.99
2017-10-31T04:43:56.976Z,85.71
2017-10-31T04:44:56.970Z,86.09
2017-10-31T04:45:56.964Z,86.09
2017-10-31T04:46:56.959Z,85.52
2017-10-31T04:47:56.950Z,85.33
2017-10-31T04:48:56.944Z,85.52
2017-10-31T04:49:56.939Z,84.67
2017-10-31T04:50:56.932Z,85.33
2017-10-31T04:51:56.977Z,85.61
2017-10-31T04:52:56.919Z,85.61
2017-10-31T04:53:56.912Z,85.71
2017-10-31T04:54:56.908Z,85.61
2017-10-31T04:55:56.900Z,85.05
2017-10-31T04:56:56.896Z,85.61
2017-10-31T04:57:56.887Z,85.42
2017-10-31T04:58:56.881Z,85.24
2017-10-31T04:59:56.882Z,84.95
2017-10-31T05:00:56.869Z,84.95
2017-10-31T05:01:56.861Z,84.48
2017-10-31T05:02:56.855Z,84.48
2017-10-31T05:03:56.849Z,84.67
2017-10-31T05:04:56.841Z,84.58
2017-10-31T05:05:56.836Z,84.29
2017-10-31T05:06:56.831Z,84.29
2017-10-31T05:07:56.823Z,84.10
2017-10-31T05:08:56.817Z,84.58
2017-10-31T05:09:56.810Z,84.95
2017-10-31T05:10:56.804Z,83.91
2017-10-31T05:11:56.797Z,84.39
2017-10-31T05:12:56.793Z,84.10
2017-10-31T05:13:56.785Z,84.10
2017-10-31T05:14:56.777Z,84.10
2017-10-31T05:15:56.772Z,83.82
2017-10-31T05:16:56.765Z,83.72
2017-10-31T05:17:56.759Z,84.01
2017-10-31T05:18:56.753Z,83.63
2017-10-31T05:19:56.745Z,83.72
2017-10-31T05:20:56.740Z,83.63
2017-10-31T05:21:56.734Z,84.10
2017-10-31T05:22:56.728Z,83.15
2017-10-31T05:23:56.721Z,83.91
2017-10-31T05:24:56.715Z,82.97
2017-10-31T05:25:56.710Z,83.25
2017-10-31T05:26:56.702Z,83.25
2017-10-31T05:27:56.696Z,83.63
2017-10-31T05:28:56.689Z,83.53
2017-10-31T05:29:56.684Z,83.91
2017-10-31T05:30:56.677Z,83.91
2017-10-31T05:31:56.670Z,83.91
2017-10-31T05:32:56.664Z,84.58
2017-10-31T05:33:56.660Z,84.77
2017-10-31T05:34:56.652Z,84.48
2017-10-31T05:35:56.645Z,84.95
2017-10-31T05:36:56.638Z,84.67
2017-10-31T05:37:56.632Z,84.58
2017-10-31T05:38:56.627Z,84.58
2017-10-31T05:39:56.619Z,84.58
2017-10-31T05:40:56.613Z,84.58
2017-10-31T05:41:56.606Z,84.58
2017-10-31T05:42:56.601Z,84.48
2017-10-31T05:43:56.593Z,84.58
2017-10-31T05:44:56.588Z,84.48
2017-10-31T05:45:56.580Z,84.58
2017-10-31T05:46:56.575Z,84.58
2017-10-31T05:47:56.570Z,84.67
2017-10-31T05:48:56.561Z,84.48
2017-10-31T05:49:56.556Z,84.58
2017-10-31T05:50:56.548Z,84.58
2017-10-31T05:51:56.541Z,84.67
2017-10-31T05:52:56.535Z,84.58
2017-10-31T05:53:56.528Z,83.91
2017-10-31T05:54:56.524Z,83.91
2017-10-31T05:55:56.515Z,84.10
2017-10-31T05:56:56.509Z,84.10
2017-10-31T05:57:56.503Z,83.63
2017-10-31T05:58:56.496Z,83.44
2017-10-31T05:59:56.489Z,83.25
2017-10-31T06:00:56.483Z,83.72
2017-10-31T06:01:56.477Z,83.72
2017-10-31T06:02:56.471Z,83.72
2017-10-31T06:03:56.464Z,83.91
2017-10-31T06:04:56.460Z,84.10
2017-10-31T06:05:56.452Z,83.82
2017-10-31T06:06:56.453Z,83.82
2017-10-31T06:07:56.437Z,83.44
2017-10-31T06:08:56.433Z,83.63
2017-10-31T06:09:56.426Z,83.82
2017-10-31T06:10:56.420Z,83.44
2017-10-31T06:11:56.417Z,83.63
2017-10-31T06:12:56.406Z,83.34
2017-10-31T06:13:56.401Z,83.82
2017-10-31T06:14:56.394Z,83.82
2017-10-31T06:15:56.388Z,83.63
2017-10-31T06:16:56.382Z,83.44
2017-10-31T06:17:56.375Z,83.53
2017-10-31T06:18:56.372Z,83.44
2017-10-31T06:19:56.362Z,84.20
2017-10-31T06:20:56.356Z,84.20
2017-10-31T06:21:56.351Z,83.91
2017-10-31T06:22:56.346Z,84.10
2017-10-31T06:23:56.337Z,84.01
2017-10-31T06:24:56.331Z,84.20
2017-10-31T06:25:56.325Z,83.91
2017-10-31T06:26:56.318Z,83.72
2017-10-31T06:27:56.361Z,84.01
2017-10-31T06:28:56.305Z,84.29
2017-10-31T06:29:56.301Z,83.82
2017-10-31T06:30:56.293Z,84.10
2017-10-31T06:31:56.293Z,83.44
2017-10-31T06:32:56.282Z,83.44
2017-10-31T06:33:56.274Z,82.63
2017-10-31T06:34:56.276Z,81.96
2017-10-31T06:35:56.262Z,81.68
2017-10-31T06:36:56.257Z,81.21
2017-10-31T06:37:56.251Z,81.02
2017-10-31T06:38:56.245Z,80.36
2017-10-31T06:39:56.288Z,80.93
2017-10-31T06:40:56.232Z,80.74
2017-10-31T06:41:56.227Z,80.36
2017-10-31T06:42:56.223Z,80.07
2017-10-31T06:43:56.213Z,79.98
2017-10-31T06:44:56.210Z,80.17
2017-10-31T06:45:56.206Z,80.26
2017-10-31T06:46:56.198Z,80.55
2017-10-31T06:47:56.191Z,80.64
2017-10-31T06:48:56.187Z,80.36
2017-10-31T06:49:56.181Z,80.93
2017-10-31T06:50:56.180Z,80.45
2017-10-31T06:51:56.168Z,79.98
2017-10-31T06:52:56.163Z,80.17
2017-10-31T06:53:56.159Z,80.45
2017-10-31T06:54:56.153Z,80.26
2017-10-31T06:55:56.147Z,80.17
2017-10-31T06:56:56.141Z,80.45
2017-10-31T06:57:56.135Z,80.17
2017-10-31T06:58:56.131Z,79.98
2017-10-31T06:59:56.125Z,79.41
2017-10-31T07:00:56.120Z,78.75
2017-10-31T07:01:56.113Z,79.17
2017-10-31T07:02:56.108Z,79.36
2017-10-31T07:03:56.101Z,78.59
2017-10-31T07:04:56.096Z,78.59
2017-10-31T07:05:56.091Z,78.59
2017-10-31T07:06:56.086Z,78.41
2017-10-31T07:07:56.080Z,78.03
2017-10-31T07:08:56.075Z,76.08
2017-10-31T07:09:56.070Z,73.27
2017-10-31T07:10:56.065Z,70.37
2017-10-31T07:11:56.061Z,67.18
2017-10-31T07:12:56.056Z,65.22
2017-10-31T07:13:56.055Z,63.70
2017-10-31T07:14:56.049Z,62.66
2017-10-31T07:15:56.044Z,63.42
2017-10-31T07:16:56.041Z,63.51
2017-10-31T07:17:56.039Z,63.70
2017-10-31T07:18:56.039Z,63.32
2017-10-31T07:19:56.036Z,62.88
2017-10-31T07:20:56.034Z,62.02
2017-10-31T07:21:56.035Z,59.87
2017-10-31T07:22:56.043Z,58.63
2017-10-31T07:23:56.032Z,58.25
2017-10-31T07:24:56.034Z,58.54
2017-10-31T07:25:56.035Z,59.01
2017-10-31T07:26:56.035Z,58.25
2017-10-31T07:27:56.036Z,57.78
2017-10-31T07:28:56.037Z,57.87
2017-10-31T07:29:56.038Z,57.97
2017-10-31T07:30:56.040Z,58.06
2017-10-31T07:31:56.041Z,59.17
2017-10-31T07:32:56.042Z,60.41
2017-10-31T07:33:56.045Z,59.84
2017-10-31T07:34:56.045Z,61.52
2017-10-31T07:35:56.045Z,62.08
2017-10-31T07:36:56.046Z,61.99
2017-10-31T07:37:56.046Z,63.76
2017-10-31T07:38:56.046Z,64.71
2017-10-31T07:39:56.046Z,66.14
2017-10-31T07:40:56.044Z,65.85
2017-10-31T07:41:56.049Z,65.56
2017-10-31T07:42:56.045Z,66.80
2017-10-31T07:43:56.044Z,66.96
2017-10-31T07:44:56.046Z,67.33
2017-10-31T07:45:56.043Z,68.85
2017-10-31T07:46:56.042Z,68.66
2017-10-31T07:47:56.042Z,68.48
2017-10-31T07:48:56.041Z,68.95
2017-10-31T07:49:56.039Z,69.13
2017-10-31T07:50:56.042Z,69.52
2017-10-31T07:51:56.036Z,69.42
2017-10-31T07:52:56.035Z,68.41
2017-10-31T07:53:56.034Z,66.99
2017-10-31T07:54:56.033Z,66.08
2017-10-31T07:55:56.032Z,64.30
2017-10-31T07:56:56.030Z,61.96
2017-10-31T07:57:56.031Z,60.28
2017-10-31T07:58:56.031Z,58.47
2017-10-31T07:59:56.031Z,56.76
2017-10-31T08:00:56.033Z,57.24
2017-10-31T08:01:56.032Z,58.37
2017-10-31T08:02:56.033Z,58.44
2017-10-31T08:03:56.038Z,60.69
2017-10-31T08:04:56.034Z,62.02
2017-10-31T08:05:56.034Z,61.36
2017-10-31T08:06:56.035Z,62.66
2017-10-31T08:07:56.034Z,63.79
2017-10-31T08:08:56.084Z,63.60
2017-10-31T08:09:56.035Z,64.75
2017-10-31T08:10:56.034Z,65.69
2017-10-31T08:11:56.034Z,66.17
2017-10-31T08:12:56.033Z,65.12
2017-10-31T08:13:56.032Z,63.54
2017-10-31T08:14:56.033Z,63.26
2017-10-31T08:15:56.031Z,61.96
2017-10-31T08:16:56.033Z,61.87
2017-10-31T08:17:56.033Z,60.35
2017-10-31T08:18:56.032Z,59.68
2017-10-31T08:19:56.034Z,60.72
2017-10-31T08:20:56.033Z,59.96
2017-10-31T08:21:56.034Z,59.30
2017-10-31T08:22:56.035Z,59.14
2017-10-31T08:23:56.036Z,59.05
2017-10-31T08:24:56.038Z,59.68
2017-10-31T08:25:56.038Z,58.66
2017-10-31T08:26:56.040Z,59.77
2017-10-31T08:27:56.039Z,59.39
2017-10-31T08:28:56.041Z,58.66
2017-10-31T08:29:56.042Z,57.62
2017-10-31T08:30:56.043Z,57.14
2017-10-31T08:31:56.050Z,56.76
2017-10-31T08:32:56.044Z,56.70
2017-10-31T08:33:56.046Z,56.29
2017-10-31T08:34:56.047Z,57.81
2017-10-31T08:35:56.048Z,59.42
2017-10-31T08:36:56.049Z,59.52
2017-10-31T08:37:56.051Z,59.68
2017-10-31T08:38:56.052Z,60.35
2017-10-31T08:39:56.052Z,61.45
2017-10-31T08:40:56.052Z,63.35
2017-10-31T08:41:56.055Z,64.27
2017-10-31T08:42:56.057Z,64.65
2017-10-31T08:43:56.053Z,65.12
2017-10-31T08:44:56.054Z,65.63
2017-10-31T08:45:56.053Z,64.97
2017-10-31T08:46:56.055Z,64.02
2017-10-31T08:47:56.052Z,62.50
2017-10-31T08:48:56.054Z,62.50
2017-10-31T08:49:56.057Z,62.40
2017-10-31T08:50:56.053Z,63.10
2017-10-31T08:51:56.051Z,62.43
2017-10-31T08:52:56.052Z,62.69
2017-10-31T08:53:56.052Z,62.59
2017-10-31T08:54:56.056Z,62.62
2017-10-31T08:55:56.056Z,62.91
2017-10-31T08:56:56.053Z,61.39
2017-10-31T08:57:56.054Z,59.99
2017-10-31T08:58:56.054Z,59.30
2017-10-31T08:59:56.056Z,58.35
2017-10-31T09:00:56.056Z,58.63
2017-10-31T09:01:56.058Z,58.83
2017-10-31T09:02:56.057Z,57.24
2017-10-31T09:03:56.056Z,56.38
2017-10-31T09:04:56.058Z,56.45
2017-10-31T09:05:56.058Z,56.85
2017-10-31T09:06:56.061Z,56.41
2017-10-31T09:07:56.061Z,55.36
2017-10-31T09:08:56.062Z,54.72
2017-10-31T09:09:56.064Z,53.77
2017-10-31T09:10:56.067Z,54.63
2017-10-31T09:11:56.070Z,54.35
2017-10-31T09:12:56.070Z,53.99
2017-10-31T09:13:56.075Z,52.47
2017-10-31T09:14:56.078Z,50.87
2017-10-31T09:15:56.081Z,50.30
2017-10-31T09:16:56.085Z,50.11
2017-10-31T09:17:56.089Z,49.82
2017-10-31T09:18:56.095Z,53.42
2017-10-31T09:19:56.098Z,54.94
2017-10-31T09:20:56.103Z,53.52
2017-10-31T09:21:56.107Z,52.75
2017-10-31T09:22:56.112Z,53.04
2017-10-31T09:23:56.115Z,52.47
2017-10-31T09:24:56.120Z,53.04
2017-10-31T09:25:56.123Z,52.49
2017-10-31T09:26:56.128Z,52.40
2017-10-31T09:27:56.135Z,51.25
2017-10-31T09:28:56.185Z,52.23
2017-10-31T09:29:56.141Z,51.21
2017-10-31T09:30:56.145Z,50.80
2017-10-31T09:31:56.148Z,49.59
2017-10-31T09:32:56.152Z,49.68
2017-10-31T09:33:56.158Z,48.44
2017-10-31T09:34:56.165Z,47.89
2017-10-31T09:35:56.178Z,46.56
2017-10-31T09:36:56.173Z,45.32
2017-10-31T09:37:56.179Z,46.25
2017-10-31T09:38:56.183Z,47.30
2017-10-31T09:39:56.189Z,47.85
2017-10-31T09:40:56.211Z,48.13
2017-10-31T09:41:56.198Z,48.42
2017-10-31T09:42:56.204Z,49.37
2017-10-31T09:43:56.210Z,50.83
2017-10-31T09:44:56.213Z,49.49
2017-10-31T09:45:56.223Z,48.16
2017-10-31T09:46:56.225Z,46.75
2017-10-31T09:47:56.229Z,45.63
2017-10-31T09:48:56.236Z,44.38
2017-10-31T09:49:56.245Z,44.48
2017-10-31T09:50:56.251Z,44.74
2017-10-31T09:51:56.254Z,44.65
2017-10-31T09:52:56.260Z,45.51
2017-10-31T09:53:56.267Z,45.25
2017-10-31T09:54:56.273Z,44.58
2017-10-31T09:55:56.279Z,42.96
2017-10-31T09:56:56.286Z,42.48
2017-10-31T09:57:56.294Z,43.05
2017-10-31T09:58:56.301Z,44.20
2017-10-31T09:59:56.306Z,43.91
2017-10-31T10:00:56.314Z,45.25
2017-10-31T10:01:56.321Z,44.98
2017-10-31T10:02:56.328Z,44.62
2017-10-31T10:03:56.338Z,44.43
2017-10-31T10:04:56.343Z,43.79
2017-10-31T10:05:56.351Z,42.24
2017-10-31T10:06:56.358Z,42.14
2017-10-31T10:07:56.365Z,42.07
2017-10-31T10:08:56.379Z,41.97
2017-10-31T10:09:56.381Z,41.47
2017-10-31T10:10:56.390Z,42.83
2017-10-31T10:11:56.396Z,43.04
2017-10-31T10:12:56.406Z,42.18
2017-10-31T10:13:56.419Z,41.53
2017-10-31T10:14:56.423Z,41.80
2017-10-31T10:15:56.429Z,41.99
2017-10-31T10:16:56.439Z,43.12
2017-10-31T10:17:56.449Z,45.03
2017-10-31T10:18:56.462Z,44.65
2017-10-31T10:19:56.466Z,44.36
2017-10-31T10:20:56.475Z,43.14
2017-10-31T10:21:56.482Z,41.03
2017-10-31T10:22:56.492Z,40.94
2017-10-31T10:23:56.499Z,40.94
2017-10-31T10:24:56.508Z,43.62
2017-10-31T10:25:56.518Z,41.22
2017-10-31T10:26:56.527Z,41.09
2017-10-31T10:27:56.535Z,43.24
2017-10-31T10:28:56.545Z,44.96
2017-10-31T10:29:56.554Z,45.25
2017-10-31T10:30:56.562Z,45.34
2017-10-31T10:31:56.569Z,45.53
2017-10-31T10:32:56.580Z,46.01
2017-10-31T10:33:56.588Z,46.11
2017-10-31T10:34:56.595Z,47.34
2017-10-31T10:35:56.604Z,47.06
2017-10-31T10:36:56.610Z,47.25
2017-10-31T10:37:56.619Z,47.44
2017-10-31T10:38:56.694Z,47.34
2017-10-31T10:39:56.633Z,47.03
2017-10-31T10:40:56.643Z,47.42
2017-10-31T10:41:56.652Z,47.68
2017-10-31T10:42:56.657Z,48.25
2017-10-31T10:43:56.715Z,49.11
2017-10-31T10:44:56.671Z,50.85
2017-10-31T10:45:56.680Z,49.23
2017-10-31T10:46:56.687Z,45.70
2017-10-31T10:47:56.692Z,45.03
2017-10-31T10:48:56.701Z,46.08
2017-10-31T10:49:56.706Z,45.42
2017-10-31T10:50:56.721Z,44.63
2017-10-31T10:51:56.720Z,45.01
2017-10-31T10:52:56.728Z,46.75
2017-10-31T10:53:56.733Z,46.27
2017-10-31T10:54:56.741Z,45.61
2017-10-31T10:55:56.748Z,44.82
2017-10-31T10:56:56.754Z,45.29
2017-10-31T10:57:56.761Z,45.39
2017-10-31T10:58:56.769Z,44.34
2017-10-31T10:59:56.781Z,44.82
2017-10-31T11:00:56.779Z,44.32
2017-10-31T11:01:56.788Z,44.89
2017-10-31T11:02:56.793Z,44.89
2017-10-31T11:03:56.798Z,46.63
2017-10-31T11:04:56.804Z,44.82
2017-10-31T11:05:56.810Z,46.25
2017-10-31T11:06:56.814Z,44.63
2017-10-31T11:07:56.820Z,43.56
2017-10-31T11:08:56.825Z,43.65
2017-10-31T11:09:56.832Z,44.23
2017-10-31T11:10:56.835Z,45.18
2017-10-31T11:11:56.840Z,45.28
2017-10-31T11:12:56.846Z,44.51
2017-10-31T11:13:56.851Z,45.15
2017-10-31T11:14:56.855Z,45.65
2017-10-31T11:15:56.861Z,46.23
2017-10-31T11:16:56.869Z,47.47
2017-10-31T11:17:56.871Z,44.82
2017-10-31T11:18:56.876Z,44.82
2017-10-31T11:19:56.878Z,46.06
2017-10-31T11:20:56.883Z,46.25
2017-10-31T11:21:56.894Z,46.06
2017-10-31T11:22:56.893Z,48.16
2017-10-31T11:23:56.896Z,47.20
2017-10-31T11:24:56.901Z,47.13
2017-10-31T11:25:56.909Z,45.70
2017-10-31T11:26:56.910Z,45.03
2017-10-31T11:27:56.926Z,45.70
2017-10-31T11:28:56.919Z,45.79
2017-10-31T11:29:56.923Z,47.32
2017-10-31T11:30:56.937Z,45.89
2017-10-31T11:31:56.932Z,43.70
2017-10-31T11:32:56.936Z,43.79
2017-10-31T11:33:56.942Z,46.56
2017-10-31T11:34:56.946Z,44.56
2017-10-31T11:35:56.950Z,43.13
2017-10-31T11:36:56.955Z,42.00
2017-10-31T11:37:56.958Z,41.62
2017-10-31T11:38:57.023Z,42.36
2017-10-31T11:39:56.967Z,41.14
2017-10-31T11:40:56.971Z,41.43
2017-10-31T11:41:56.977Z,40.57
2017-10-31T11:42:56.980Z,40.19
2017-10-31T11:43:56.988Z,39.32
2017-10-31T11:44:56.989Z,38.66
2017-10-31T11:45:56.993Z,38.85
2017-10-31T11:46:57.052Z,41.05
2017-10-31T11:47:57.002Z,39.61
2017-10-31T11:48:57.005Z,37.61
2017-10-31T11:49:57.011Z,39.61
2017-10-31T11:50:57.015Z,40.95
2017-10-31T11:51:57.019Z,40.28
2017-10-31T11:52:57.023Z,38.37
2017-10-31T11:53:57.028Z,38.45
2017-10-31T11:54:57.035Z,38.64
2017-10-31T11:55:57.038Z,39.12
2017-10-31T11:56:57.043Z,40.17
2017-10-31T11:57:57.049Z,38.64
2017-10-31T11:58:57.053Z,42.63
2017-10-31T11:59:57.062Z,43.70
2017-10-31T12:00:57.062Z,42.27
2017-10-31T12:01:57.068Z,41.50
2017-10-31T12:02:57.073Z,41.60
2017-10-31T12:03:57.076Z,43.51
2017-10-31T12:04:57.080Z,43.41
2017-10-31T12:05:57.087Z,41.12
2017-10-31T12:06:57.096Z,41.69
2017-10-31T12:07:57.096Z,41.39
2017-10-31T12:08:57.103Z,42.82
2017-10-31T12:09:57.105Z,45.97
2017-10-31T12:10:57.110Z,45.49
2017-10-31T12:11:57.115Z,45.87
2017-10-31T12:12:57.118Z,45.39
2017-10-31T12:13:57.124Z,45.87
2017-10-31T12:14:57.137Z,45.39
2017-10-31T12:15:57.131Z,42.91
2017-10-31T12:16:57.137Z,42.34
2017-10-31T12:17:57.140Z,44.27
2017-10-31T12:18:57.153Z,45.03
2017-10-31T12:19:57.150Z,44.08
2017-10-31T12:20:57.154Z,44.01
2017-10-31T12:21:57.158Z,41.14
2017-10-31T12:22:57.163Z,41.88
2017-10-31T12:23:57.167Z,42.93
2017-10-31T12:24:57.173Z,44.17
2017-10-31T12:25:57.176Z,43.91
2017-10-31T12:26:57.181Z,42.48
2017-10-31T12:27:57.186Z,41.45
2017-10-31T12:28:57.189Z,39.92
2017-10-31T12:29:57.194Z,39.15
2017-10-31T12:30:57.198Z,37.92
2017-10-31T12:31:57.204Z,38.47
2017-10-31T12:32:57.208Z,39.61
2017-10-31T12:33:57.212Z,40.26
2017-10-31T12:34:57.217Z,43.05
2017-10-31T12:35:57.222Z,42.57
2017-10-31T12:36:57.227Z,41.62
2017-10-31T12:37:57.231Z,42.31
2017-10-31T12:38:57.237Z,40.69
2017-10-31T12:39:57.241Z,40.20
2017-10-31T12:40:57.247Z,40.59
2017-10-31T12:41:57.252Z,41.28
2017-10-31T12:42:57.257Z,38.98
2017-10-31T12:43:57.261Z,39.65
2017-10-31T12:44:57.268Z,40.78
2017-10-31T12:45:57.273Z,42.67
2017-10-31T12:46:57.286Z,44.48
2017-10-31T12:47:57.282Z,43.91
2017-10-31T12:48:57.287Z,42.77
2017-10-31T12:49:57.292Z,42.38
2017-10-31T12:50:57.298Z,41.71
2017-10-31T12:51:57.304Z,43.53
2017-10-31T12:52:57.306Z,44.94
2017-10-31T12:53:57.311Z,44.56